Time;durP1;ratioP1;P1;durP2;ratioP2;P2;SDS_P1;SDS_P2;PMS_P1;PMS_P2;Temp;Humidity;BMP_temperature;BMP_pressure;BME280_temperature;BME280_humidity;BME280_pressure;Samples;Min_cycle;Max_cycle;Signal;HPM_P1;HPM_P2
2023/03/31 00:03:32;;;;;;;3.10;2.40;;;;;;;0.76;69.08;100373.47;102884;1293;599993;-82
2023/03/31 00:06:02;;;;;;;4.20;2.80;;;;;;;0.71;69.07;100376.70;105175;1263;59715;-84
2023/03/31 00:08:34;;;;;;;3.90;2.40;;;;;;;0.68;68.94;100377.12;105355;1263;61490;-87
2023/03/31 00:11:04;;;;;;;3.00;2.60;;;;;;;0.66;69.08;100378.86;105351;1263;72224;-86
2023/03/31 00:13:33;;;;;;;2.60;2.10;;;;;;;0.64;69.07;100373.42;105423;1263;63854;-87
2023/03/31 00:16:06;;;;;;;4.40;1.90;;;;;;;0.62;69.17;100373.29;104727;1263;922980;-87
2023/03/31 00:18:35;;;;;;;2.60;2.30;;;;;;;0.60;69.28;100368.70;105562;1260;61873;-84
2023/03/31 00:21:13;;;;;;;3.70;2.80;;;;;;;0.58;69.21;100368.23;105560;1260;61322;-86
2023/03/31 00:23:42;;;;;;;3.40;3.10;;;;;;;0.59;69.27;100369.08;105519;1265;73729;-87
2023/03/31 00:26:12;;;;;;;3.20;2.50;;;;;;;0.60;69.31;100367.15;105367;1265;64616;-87
2023/03/31 00:28:40;;;;;;;2.50;2.30;;;;;;;0.64;69.25;100366.90;105605;1260;72351;-86
2023/03/31 00:31:08;;;;;;;4.60;2.60;;;;;;;0.65;69.06;100364.96;105522;1260;60631;-84
2023/03/31 00:33:40;;;;;;;4.50;2.90;;;;;;;0.67;68.77;100359.59;105723;1264;61153;-86
2023/03/31 00:36:08;;;;;;;4.50;2.90;;;;;;;0.67;68.65;100356.31;105613;1260;73964;-86
2023/03/31 00:38:37;;;;;;;5.20;3.00;;;;;;;0.67;68.55;100359.41;105569;1260;64273;-86
2023/03/31 00:41:05;;;;;;;4.80;3.00;;;;;;;0.66;68.43;100357.04;106142;1254;72748;-88
2023/03/31 00:43:35;;;;;;;3.70;2.70;;;;;;;0.64;68.29;100354.52;106742;1256;60588;-85
2023/03/31 00:46:17;;;;;;;5.20;2.80;;;;;;;0.61;68.09;100354.74;106549;1256;60714;-86
2023/03/31 00:48:48;;;;;;;3.40;2.60;;;;;;;0.58;68.08;100353.08;106256;1254;74404;-84
2023/03/31 00:51:16;;;;;;;3.20;2.10;;;;;;;0.55;68.02;100357.12;106114;1258;64811;-85
2023/03/31 00:53:54;;;;;;;4.00;2.80;;;;;;;0.51;68.02;100353.26;106119;1254;73444;-87
2023/03/31 00:56:22;;;;;;;2.80;2.00;;;;;;;0.49;68.21;100348.82;106036;1252;60659;-85
2023/03/31 00:58:52;;;;;;;2.40;2.10;;;;;;;0.47;68.37;100360.22;106215;1253;60283;-86
2023/03/31 01:01:23;;;;;;;4.00;2.50;;;;;;;0.45;68.34;100351.01;105732;1254;74294;-87
2023/03/31 01:03:53;;;;;;;2.20;1.90;;;;;;;0.44;68.44;100354.79;106009;1254;64675;-84
2023/03/31 01:06:22;;;;;;;5.80;2.00;;;;;;;0.44;68.54;100356.52;106227;1256;73879;-85
2023/03/31 01:08:51;;;;;;;2.60;1.80;;;;;;;0.42;68.43;100359.65;106217;1256;60266;-84
2023/03/31 01:11:24;;;;;;;2.60;2.20;;;;;;;0.41;68.52;100355.18;106169;1254;60526;-82
2023/03/31 01:13:54;;;;;;;3.90;3.30;;;;;;;0.43;68.50;100361.17;106128;1254;74229;-85
2023/03/31 01:16:24;;;;;;;2.00;1.50;;;;;;;0.43;68.60;100363.42;105855;1257;64852;-86
2023/03/31 01:18:56;;;;;;;2.10;1.90;;;;;;;0.44;68.60;100365.63;106203;1256;72350;-86
2023/03/31 01:21:55;;;;;;;2.00;1.80;;;;;;;0.44;68.56;100365.27;106050;1259;59704;-86
2023/03/31 01:24:48;;;;;;;6.70;3.00;;;;;;;0.45;68.51;100365.94;106459;1256;59972;-86
2023/03/31 01:27:43;;;;;;;4.90;2.40;;;;;;;0.49;68.57;100366.38;106149;1256;74113;-84
2023/03/31 01:30:38;;;;;;;4.10;3.00;;;;;;;0.53;68.32;100369.04;106098;1252;64582;-88
2023/03/31 01:33:15;;;;;;;3.50;2.80;;;;;;;0.53;68.25;100372.11;106224;1254;73692;-82
2023/03/31 01:36:13;;;;;;;3.40;2.50;;;;;;;0.53;68.01;100370.23;106372;1256;59571;-85
2023/03/31 01:38:56;;;;;;;2.60;2.00;;;;;;;0.52;68.06;100372.67;105858;1259;60883;-85
2023/03/31 01:41:34;;;;;;;2.50;2.20;;;;;;;0.51;68.01;100375.63;105685;1260;73209;-85
2023/03/31 01:44:24;;;;;;;4.40;2.50;;;;;;;0.49;67.85;100375.31;105629;1260;63621;-85
2023/03/31 01:47:39;;;;;;;3.20;2.90;;;;;;;0.46;68.15;100377.77;105614;1259;72595;-86
2023/03/31 01:50:17;;;;;;;3.80;2.80;;;;;;;0.42;68.04;100373.57;106580;1259;59646;-85
2023/03/31 01:52:52;;;;;;;4.20;2.80;;;;;;;0.36;68.08;100374.03;106145;1257;60689;-86
2023/03/31 01:55:39;;;;;;;3.70;2.60;;;;;;;0.33;68.18;100376.69;105683;1262;74277;-84
2023/03/31 01:58:20;;;;;;;3.00;2.60;;;;;;;0.29;68.16;100371.96;105674;1260;64925;-85
2023/03/31 02:01:00;;;;;;;4.20;2.30;;;;;;;0.27;68.33;100375.29;105744;1259;73680;-84
2023/03/31 02:03:36;;;;;;;4.40;2.80;;;;;;;0.26;68.34;100375.83;105654;1262;60236;-86
2023/03/31 02:06:10;;;;;;;3.20;2.90;;;;;;;0.24;68.36;100377.06;105652;1259;61386;-87
2023/03/31 02:08:41;;;;;;;3.90;2.50;;;;;;;0.23;68.43;100379.52;105549;1260;73977;-86
2023/03/31 02:11:09;;;;;;;2.30;2.10;;;;;;;0.19;68.70;100381.64;105522;1259;64852;-85
2023/03/31 02:13:46;;;;;;;2.60;1.90;;;;;;;0.17;68.65;100383.22;105531;1262;73849;-86
2023/03/31 02:16:17;;;;;;;2.70;2.40;;;;;;;0.16;68.86;100381.17;105957;1254;61158;-87
2023/03/31 02:18:47;;;;;;;5.00;2.80;;;;;;;0.16;68.98;100382.39;108120;1252;60364;-86
2023/03/31 02:21:15;;;;;;;3.50;2.30;;;;;;;0.17;68.99;100380.64;109425;1252;73063;-85
2023/03/31 02:23:44;;;;;;;3.30;2.40;;;;;;;0.18;68.99;100385.10;109797;1254;63571;-86
2023/03/31 02:26:19;;;;;;;3.40;2.60;;;;;;;0.20;68.99;100383.34;109597;1253;72349;-87
2023/03/31 02:28:47;;;;;;;4.80;2.90;;;;;;;0.23;69.18;100385.16;109520;1253;57994;-84
2023/03/31 02:31:27;;;;;;;5.10;2.70;;;;;;;0.26;69.25;100384.42;108211;1253;60287;-84
2023/03/31 02:33:58;;;;;;;3.40;2.60;;;;;;;0.29;69.22;100385.55;106748;1252;73717;-87
2023/03/31 02:36:26;;;;;;;6.30;4.80;;;;;;;0.31;69.21;100387.73;106325;1252;64056;-85
2023/03/31 02:39:01;;;;;;;9.20;6.10;;;;;;;0.31;69.33;100383.96;106297;1252;72662;-85
2023/03/31 02:41:30;;;;;;;15.60;10.00;;;;;;;0.31;69.52;100382.59;106412;1256;60272;-87
2023/03/31 02:43:58;;;;;;;15.90;9.90;;;;;;;0.30;69.63;100374.55;106188;1257;60324;-85
2023/03/31 02:46:26;;;;;;;12.30;7.50;;;;;;;0.27;69.88;100381.47;106042;1256;73936;-84
2023/03/31 02:48:56;;;;;;;24.10;14.60;;;;;;;0.24;70.14;100380.85;105917;1253;64043;-86
2023/03/31 02:51:47;;;;;;;30.20;16.40;;;;;;;0.21;70.48;100378.67;106142;1254;72627;-85
2023/03/31 02:54:53;;;;;;;29.40;16.20;;;;;;;0.17;70.85;100380.82;106198;1257;62117;-84
2023/03/31 02:57:48;;;;;;;32.20;18.70;;;;;;;0.14;71.02;100386.55;106126;1257;61420;-86
2023/03/31 03:00:39;;;;;;;31.30;16.30;;;;;;;0.10;71.55;100385.45;106180;1254;74181;-87
2023/03/31 03:03:30;;;;;;;36.40;17.80;;;;;;;0.08;71.93;100389.09;106225;1254;64709;-86
2023/03/31 03:06:12;;;;;;;25.70;16.10;;;;;;;0.07;72.21;100385.32;106908;1257;73666;-86
2023/03/31 03:09:17;;;;;;;24.80;15.00;;;;;;;0.08;72.67;100383.93;108333;1253;62341;-84
2023/03/31 03:11:58;;;;;;;21.30;12.20;;;;;;;0.10;72.81;100383.55;107776;1256;60253;-86
2023/03/31 03:14:32;;;;;;;22.80;12.50;;;;;;;0.12;72.85;100382.48;106514;1254;73485;-86
2023/03/31 03:17:05;;;;;;;27.60;14.00;;;;;;;0.15;72.95;100384.13;106290;1256;64056;-86
2023/03/31 03:19:34;;;;;;;27.80;14.40;;;;;;;0.19;73.00;100383.70;106230;1256;72627;-89
2023/03/31 03:22:03;;;;;;;26.10;16.90;;;;;;;0.21;73.02;100381.59;106747;1257;62204;-83
2023/03/31 03:24:33;;;;;;;32.70;17.90;;;;;;;0.24;73.12;100383.09;107945;1255;60372;-83
2023/03/31 03:27:06;;;;;;;38.20;20.30;;;;;;;0.25;73.10;100381.86;107361;1256;72668;-83
2023/03/31 03:29:35;;;;;;;39.10;18.90;;;;;;;0.25;73.13;100383.74;107151;1254;64461;-83
2023/03/31 03:32:03;;;;;;;37.60;20.20;;;;;;;0.27;73.01;100383.52;106090;1256;72687;-85
2023/03/31 03:34:33;;;;;;;38.70;22.10;;;;;;;0.27;72.98;100379.75;106060;1253;60819;-88
2023/03/31 03:37:01;;;;;;;49.10;23.50;;;;;;;0.26;72.81;100379.60;106038;1254;61276;-84
2023/03/31 03:39:29;;;;;;;39.60;23.30;;;;;;;0.25;72.88;100377.73;106395;1256;73929;-87
2023/03/31 03:41:58;;;;;;;43.90;24.50;;;;;;;0.23;72.78;100370.91;107006;1256;64628;-86
2023/03/31 03:44:26;;;;;;;40.00;22.50;;;;;;;0.20;72.85;100376.45;106222;1255;72678;-86
2023/03/31 03:46:54;;;;;;;47.40;23.20;;;;;;;0.17;72.97;100376.01;106281;1253;60886;-86
2023/03/31 03:49:24;;;;;;;38.40;22.90;;;;;;;0.16;73.34;100376.90;106481;1254;61387;-86
2023/03/31 03:51:52;;;;;;;47.80;25.30;;;;;;;0.16;73.76;100377.41;106305;1252;73894;-85
2023/03/31 03:54:24;;;;;;;51.40;24.30;;;;;;;0.19;74.21;100380.09;106245;1254;63253;-86
2023/03/31 03:56:52;;;;;;;51.90;25.00;;;;;;;0.26;74.10;100382.02;106187;1254;73655;-87
2023/03/31 03:59:20;;;;;;;55.00;25.60;;;;;;;0.32;73.96;100382.75;106395;1254;60330;-86
2023/03/31 04:01:55;;;;;;;49.50;27.90;;;;;;;0.39;73.79;100383.62;106384;1258;60111;-85
2023/03/31 04:04:24;;;;;;;53.10;29.90;;;;;;;0.53;73.83;100382.61;106216;1257;74586;-86
2023/03/31 04:06:54;;;;;;;59.20;31.80;;;;;;;0.75;73.58;100385.37;106134;1257;62558;-86
2023/03/31 04:09:23;;;;;;;66.20;33.90;;;;;;;0.96;72.81;100381.95;106174;1254;73459;-85
2023/03/31 04:11:52;;;;;;;60.20;32.70;;;;;;;1.22;72.16;100384.07;106098;1257;60252;-86
2023/03/31 04:14:20;;;;;;;66.20;36.00;;;;;;;1.39;71.29;100381.23;106300;1254;60359;-85
2023/03/31 04:16:55;;;;;;;70.10;36.80;;;;;;;1.50;70.47;100389.04;106356;1257;73894;-85
2023/03/31 04:19:24;;;;;;;67.30;35.90;;;;;;;1.56;69.94;100389.02;106221;1253;64787;-83
2023/03/31 04:22:01;;;;;;;63.50;37.10;;;;;;;1.62;69.57;100388.20;106121;1259;72632;-85
2023/03/31 04:24:33;;;;;;;68.40;37.00;;;;;;;1.68;69.32;100382.88;106018;1256;60526;-84
2023/03/31 04:27:06;;;;;;;62.60;36.00;;;;;;;1.73;68.99;100389.11;106112;1260;60872;-87
2023/03/31 04:29:36;;;;;;;61.80;35.10;;;;;;;1.74;68.78;100392.86;106055;1254;73831;-85
2023/03/31 04:32:05;;;;;;;66.40;34.90;;;;;;;1.77;68.88;100391.59;106560;1256;64542;-84
2023/03/31 04:34:33;;;;;;;67.80;32.80;;;;;;;1.82;68.66;100389.54;106375;1255;73678;-85
2023/03/31 04:37:03;;;;;;;52.90;25.50;;;;;;;1.91;68.67;100393.26;105963;1258;61265;-85
2023/03/31 04:39:31;;;;;;;41.60;23.20;;;;;;;2.02;68.42;100391.41;106053;1253;61016;-85
2023/03/31 04:42:04;;;;;;;32.80;17.50;;;;;;;2.20;68.32;100388.83;106156;1256;73723;-85
2023/03/31 04:44:37;;;;;;;29.50;16.60;;;;;;;2.41;67.83;100387.67;106377;1256;64753;-84
2023/03/31 04:47:14;;;;;;;27.50;16.10;;;;;;;2.67;67.26;100388.27;106159;1266;73404;-85
2023/03/31 04:49:44;;;;;;;28.80;15.70;;;;;;;2.94;66.25;100388.27;107810;1253;60395;-84
2023/03/31 04:52:12;;;;;;;36.60;19.90;;;;;;;3.29;65.50;100392.13;106098;1260;60438;-87
2023/03/31 04:54:41;;;;;;;43.80;21.20;;;;;;;3.82;64.52;100392.56;105987;1260;74818;-84
2023/03/31 04:57:10;;;;;;;47.60;24.40;;;;;;;4.47;63.49;100388.41;105722;1259;64537;-87
2023/03/31 04:59:41;;;;;;;49.30;28.30;;;;;;;5.21;61.65;100387.71;105928;1255;72638;-87
2023/03/31 05:02:22;;;;;;;42.80;26.10;;;;;;;6.00;59.21;100385.20;106083;1256;60458;-86
2023/03/31 05:04:52;;;;;;;40.60;23.70;;;;;;;6.74;56.92;100388.56;106092;1256;61589;-88
2023/03/31 05:07:21;;;;;;;33.30;21.40;;;;;;;7.40;54.51;100395.78;105975;1256;75127;-85
2023/03/31 05:09:49;;;;;;;34.80;22.20;;;;;;;7.94;52.30;100389.48;106142;1256;64789;-86
2023/03/31 05:12:17;;;;;;;38.70;22.90;;;;;;;8.44;51.25;100381.14;106155;1255;71589;-89
2023/03/31 05:14:46;;;;;;;42.00;23.70;;;;;;;8.92;50.21;100380.89;105884;1252;60532;-86
2023/03/31 05:17:16;;;;;;;35.70;22.20;;;;;;;9.38;48.43;100382.70;105946;1253;61022;-83
2023/03/31 05:19:45;;;;;;;37.50;21.20;;;;;;;9.77;47.20;100375.23;105950;1257;74755;-84
2023/03/31 05:22:13;;;;;;;30.30;19.40;;;;;;;10.20;46.38;100372.89;106054;1256;63800;-82
2023/03/31 05:24:42;;;;;;;25.70;18.30;;;;;;;10.66;44.89;100374.56;105835;1258;73719;-86
2023/03/31 05:27:10;;;;;;;35.50;18.30;;;;;;;10.95;43.49;100365.66;105953;1253;60531;-86
2023/03/31 05:29:39;;;;;;;39.20;25.10;;;;;;;11.17;42.79;100361.31;105878;1257;61518;-85
2023/03/31 05:32:07;;;;;;;39.30;25.70;;;;;;;11.35;41.49;100365.48;105895;1266;74858;-83
2023/03/31 05:34:36;;;;;;;40.90;24.80;;;;;;;11.42;41.22;100369.60;105966;1253;63859;-84
2023/03/31 05:37:04;;;;;;;36.20;21.30;;;;;;;11.66;41.25;100371.77;106044;1256;72599;-84
2023/03/31 05:39:32;;;;;;;32.50;19.50;;;;;;;12.07;40.78;100371.10;105929;1257;60561;-85
2023/03/31 05:42:02;;;;;;;35.30;17.10;;;;;;;12.47;40.08;100369.33;107092;1256;60641;-83
2023/03/31 05:44:30;;;;;;;30.60;13.70;;;;;;;12.85;39.16;100368.70;106974;1256;73803;-84
2023/03/31 05:47:02;;;;;;;28.00;12.30;;;;;;;13.15;37.81;100370.45;106266;1254;64637;-83
2023/03/31 05:49:37;;;;;;;29.50;11.50;;;;;;;13.45;37.04;100370.35;108218;1254;73590;-85
2023/03/31 05:52:09;;;;;;;23.60;11.10;;;;;;;13.65;36.16;100367.77;107902;1252;59259;-87
2023/03/31 05:54:37;;;;;;;27.40;10.70;;;;;;;13.85;36.20;100366.55;106259;1254;61312;-86
2023/03/31 05:57:05;;;;;;;21.70;12.70;;;;;;;14.19;36.18;100363.21;105829;1260;73797;-85
2023/03/31 05:59:35;;;;;;;23.60;13.20;;;;;;;14.62;35.92;100361.25;106559;1252;63560;-85
2023/03/31 06:02:03;;;;;;;29.90;13.60;;;;;;;15.03;35.37;100361.59;106337;1256;73664;-84
2023/03/31 06:04:32;;;;;;;21.20;13.20;;;;;;;15.43;34.56;100359.96;106707;1257;61074;-83
2023/03/31 06:07:00;;;;;;;23.90;14.60;;;;;;;15.69;33.92;100356.58;106188;1255;61331;-85
2023/03/31 06:09:34;;;;;;;;;;;;;;;15.85;33.69;100355.39;106221;1257;74236;-84
2023/03/31 06:12:03;;;;;;;29.50;17.70;;;;;;;16.00;32.73;100349.15;106189;1253;63949;-85
2023/03/31 06:14:31;;;;;;;38.20;20.50;;;;;;;16.22;32.86;100340.16;106181;1256;73354;-85
2023/03/31 06:16:59;;;;;;;34.60;19.50;;;;;;;16.50;31.49;100336.59;106058;1256;61350;-86
2023/03/31 06:19:30;;;;;;;34.80;20.60;;;;;;;16.64;30.73;100335.42;108725;1253;61124;-86
2023/03/31 06:21:58;;;;;;;32.80;19.70;;;;;;;16.70;30.34;100332.52;109622;1254;73794;-85
2023/03/31 06:24:27;;;;;;;28.80;19.00;;;;;;;16.80;30.38;100340.52;109616;1255;64740;-83
2023/03/31 06:27:00;;;;;;;36.70;21.40;;;;;;;17.04;30.34;100341.97;106505;1256;73632;-86
2023/03/31 06:29:28;;;;;;;33.90;20.20;;;;;;;17.30;30.50;100339.95;107119;1254;60459;-84
2023/03/31 06:31:57;;;;;;;33.90;22.60;;;;;;;17.50;29.66;100338.27;106452;1256;60454;-85
2023/03/31 06:34:26;;;;;;;33.90;25.70;;;;;;;17.62;29.21;100336.27;107014;1257;75540;-86
2023/03/31 06:36:58;;;;;;;39.50;28.30;;;;;;;17.63;28.49;100334.02;106641;1254;64870;-84
2023/03/31 06:39:30;;;;;;;34.40;26.10;;;;;;;17.65;28.41;100334.92;107235;1254;71424;-86
2023/03/31 06:41:59;;;;;;;35.60;26.20;;;;;;;17.83;28.43;100329.24;107204;1251;61535;-86
2023/03/31 06:44:28;;;;;;;36.20;24.80;;;;;;;17.91;28.17;100330.74;106649;1254;60795;-87
2023/03/31 06:46:57;;;;;;;26.70;22.50;;;;;;;18.07;28.22;100332.20;106513;1254;74824;-85
2023/03/31 06:49:25;;;;;;;26.80;18.10;;;;;;;18.23;27.92;100330.27;106180;1252;63919;-84
2023/03/31 06:51:55;;;;;;;20.00;14.70;;;;;;;18.37;27.09;100328.43;106281;1258;73574;-87
2023/03/31 06:54:23;;;;;;;20.80;14.80;;;;;;;18.39;26.55;100327.16;107774;1256;61459;-82
2023/03/31 06:56:52;;;;;;;20.80;14.70;;;;;;;18.46;26.42;100329.89;107070;1254;61262;-86
2023/03/31 06:59:26;;;;;;;17.10;11.30;;;;;;;18.51;26.19;100330.70;107224;1254;74089;-85
2023/03/31 07:01:57;;;;;;;15.80;11.80;;;;;;;18.51;25.28;100334.34;106601;1256;64797;-86
2023/03/31 07:04:36;;;;;;;19.80;13.90;;;;;;;18.39;25.88;100327.35;105874;1260;70772;-86
2023/03/31 07:07:14;;;;;;;20.80;13.30;;;;;;;18.51;25.25;100332.58;105993;1257;60508;-87
2023/03/31 07:09:45;;;;;;;20.80;13.00;;;;;;;18.59;25.77;100330.68;106012;1257;60367;-84
2023/03/31 07:12:14;;;;;;;20.70;11.70;;;;;;;18.74;25.30;100329.38;105885;1257;74539;-84
2023/03/31 07:14:42;;;;;;;21.60;13.00;;;;;;;18.96;24.31;100325.64;105655;1260;63832;-85
2023/03/31 07:17:10;;;;;;;27.20;16.20;;;;;;;19.06;24.19;100322.85;106191;1255;72356;-86
2023/03/31 07:19:41;;;;;;;19.00;14.10;;;;;;;19.13;23.98;100319.70;105946;1259;60521;-85
2023/03/31 07:22:10;;;;;;;23.30;12.60;;;;;;;19.12;24.18;100319.46;105924;1254;60571;-88
2023/03/31 07:24:38;;;;;;;22.70;11.70;;;;;;;19.06;22.73;100319.33;105960;1256;74666;-87
2023/03/31 07:27:07;;;;;;;19.60;11.30;;;;;;;18.80;22.52;100317.44;105966;1254;64777;-86
2023/03/31 07:29:35;;;;;;;15.00;13.10;;;;;;;18.61;22.67;100317.95;105966;1257;73911;-85
2023/03/31 07:32:09;;;;;;;24.10;15.70;;;;;;;18.33;23.22;100319.45;106664;1254;60466;-85
2023/03/31 07:34:39;;;;;;;25.70;15.10;;;;;;;18.04;23.70;100323.77;106024;1257;61352;-85
2023/03/31 07:37:08;;;;;;;20.40;13.60;;;;;;;17.89;23.69;100321.90;108117;1253;72893;-84
2023/03/31 07:39:41;;;;;;;29.90;13.60;;;;;;;17.71;23.51;100322.02;108581;1253;62853;-85
2023/03/31 07:42:19;;;;;;;23.00;13.40;;;;;;;17.53;23.84;100317.35;107252;1257;71169;-87
2023/03/31 07:44:51;;;;;;;19.90;12.50;;;;;;;17.39;23.73;100313.29;107032;1253;61371;-86
2023/03/31 07:47:23;;;;;;;16.10;12.60;;;;;;;17.16;22.99;100308.55;106724;1254;61315;-84
2023/03/31 07:49:51;;;;;;;21.70;12.90;;;;;;;16.72;23.40;100304.98;105925;1254;75133;-86
2023/03/31 07:52:19;;;;;;;18.50;12.90;;;;;;;16.26;23.95;100305.91;106297;1254;63389;-88
2023/03/31 07:54:51;;;;;;;15.30;12.00;;;;;;;15.85;24.72;100304.80;106603;1254;72708;-85
2023/03/31 07:57:25;;;;;;;20.70;13.00;;;;;;;15.50;25.33;100309.89;106941;1254;60559;-86
2023/03/31 07:59:53;;;;;;;20.40;12.10;;;;;;;15.26;26.10;100312.65;105933;1257;60363;-86
2023/03/31 08:02:46;;;;;;;19.30;11.00;;;;;;;15.02;26.96;100308.87;106584;1254;74693;-84
2023/03/31 08:05:17;;;;;;;12.90;9.30;;;;;;;14.83;27.72;100313.44;107304;1254;64676;-85
2023/03/31 08:07:55;;;;;;;15.20;7.80;;;;;;;14.63;28.24;100307.12;106279;1254;72820;-84
2023/03/31 08:10:32;;;;;;;10.10;6.00;;;;;;;14.43;28.94;100304.48;107687;1253;60522;-85
2023/03/31 08:13:01;;;;;;;12.30;5.80;;;;;;;14.29;29.26;100305.79;105913;1254;61396;-87
2023/03/31 08:15:30;;;;;;;14.50;6.50;;;;;;;14.18;29.25;100304.38;105778;1257;73785;-86
2023/03/31 08:18:03;;;;;;;15.10;7.90;;;;;;;14.01;30.02;100305.41;105767;1254;65098;-83
2023/03/31 08:20:31;;;;;;;14.70;7.40;;;;;;;13.82;29.88;100301.59;105778;1254;73889;-86
2023/03/31 08:23:00;;;;;;;18.00;8.60;;;;;;;13.63;30.56;100302.59;105722;1259;61374;-86
2023/03/31 08:25:28;;;;;;;14.20;7.10;;;;;;;13.47;30.73;100298.91;105847;1257;60315;-85
2023/03/31 08:27:57;;;;;;;9.90;6.60;;;;;;;13.30;31.41;100296.87;105986;1254;74702;-84
2023/03/31 08:30:25;;;;;;;9.30;5.50;;;;;;;13.20;32.16;100295.63;105906;1257;62894;-84
2023/03/31 08:32:55;;;;;;;10.30;5.20;;;;;;;13.14;32.13;100292.64;105775;1255;72723;-86
2023/03/31 08:35:23;;;;;;;5.90;3.70;;;;;;;13.00;32.09;100292.27;106093;1259;60687;-85
2023/03/31 08:37:52;;;;;;;6.60;4.10;;;;;;;12.84;32.38;100291.39;106078;1257;61422;-85
2023/03/31 08:40:24;;;;;;;5.40;3.70;;;;;;;12.69;32.92;100291.42;106740;1253;74653;-86
2023/03/31 08:43:10;;;;;;;5.80;3.00;;;;;;;12.51;33.38;100291.31;106647;1254;64853;-85
2023/03/31 08:45:40;;;;;;;5.60;3.70;;;;;;;12.33;34.03;100291.57;107625;1254;73435;-85
2023/03/31 08:48:37;;;;;;;5.70;3.10;;;;;;;12.23;34.64;100293.38;107668;1253;61352;-87
2023/03/31 08:51:20;;;;;;;4.70;3.20;;;;;;;12.13;34.55;100293.36;106470;1254;61332;-86
2023/03/31 08:54:02;;;;;;;6.30;3.10;;;;;;;12.02;34.83;100292.80;105869;1257;75415;-86
2023/03/31 08:56:36;;;;;;;5.60;3.40;;;;;;;11.95;35.39;100288.02;105825;1254;64787;-88
2023/03/31 08:59:05;;;;;;;;;;;;;;;11.90;35.86;100282.55;105927;1254;72540;-84
2023/03/31 09:01:49;;;;;;;5.30;3.60;;;;;;;11.91;36.06;100280.42;105875;1254;61391;-86
2023/03/31 09:04:26;;;;;;;10.00;3.90;;;;;;;11.93;36.07;100280.48;105890;1254;61259;-85
2023/03/31 09:07:22;;;;;;;4.80;3.70;;;;;;;11.96;36.12;100282.36;105940;1256;74741;-88
2023/03/31 09:10:11;;;;;;;5.70;4.00;;;;;;;11.97;35.43;100275.58;105972;1254;63109;-85
2023/03/31 09:13:09;;;;;;;7.00;4.30;;;;;;;11.93;35.19;100279.95;105889;1254;73646;-86
2023/03/31 09:15:39;;;;;;;6.80;3.70;;;;;;;11.76;35.06;100277.41;105835;1254;61237;-86
2023/03/31 09:18:18;;;;;;;3.90;3.10;;;;;;;11.61;35.27;100277.42;105788;1254;60547;-86
2023/03/31 09:21:01;;;;;;;6.70;3.40;;;;;;;11.46;35.95;100276.33;105758;1255;74823;-87
2023/03/31 09:23:38;;;;;;;5.60;3.40;;;;;;;11.32;36.45;100275.20;105770;1257;64790;-88
2023/03/31 09:26:25;;;;;;;6.80;4.00;;;;;;;11.19;36.63;100279.23;105885;1254;72487;-86
2023/03/31 09:28:56;;;;;;;8.60;3.70;;;;;;;11.07;36.66;100284.77;105753;1257;61330;-87
2023/03/31 09:31:27;;;;;;;3.30;2.80;;;;;;;11.03;37.17;100277.16;105762;1254;60693;-86
2023/03/31 09:34:00;;;;;;;6.50;3.20;;;;;;;10.99;37.29;100273.92;105728;1259;74477;-86
2023/03/31 09:36:28;;;;;;;6.00;3.40;;;;;;;10.91;37.28;100275.52;105759;1254;63824;-85
2023/03/31 09:38:58;;;;;;;4.60;2.80;;;;;;;10.75;37.80;100273.46;105863;1254;73442;-85
2023/03/31 09:41:26;;;;;;;6.10;3.30;;;;;;;10.62;38.17;100276.04;105774;1254;60447;-87
2023/03/31 09:43:54;;;;;;;7.60;3.20;;;;;;;10.52;38.47;100275.13;105751;1258;60517;-85
2023/03/31 09:46:32;;;;;;;7.90;3.90;;;;;;;10.43;38.35;100272.75;105900;1258;74531;-86
2023/03/31 09:49:05;;;;;;;5.60;3.10;;;;;;;10.33;38.34;100274.63;105879;1257;64506;-83
2023/03/31 09:51:36;;;;;;;4.10;3.10;;;;;;;10.27;38.54;100272.02;105769;1257;73996;-84
2023/03/31 09:54:25;;;;;;;4.90;3.10;;;;;;;10.29;38.97;100268.02;105862;1259;60454;-85
2023/03/31 09:56:54;;;;;;;8.30;3.50;;;;;;;10.39;38.85;100262.71;105961;1255;60461;-87
2023/03/31 09:59:33;;;;;;;5.10;3.40;;;;;;;10.48;39.13;100263.71;105733;1254;74022;-87
2023/03/31 10:02:03;;;;;;;5.90;3.00;;;;;;;10.52;39.61;100262.58;105918;1257;64343;-88
2023/03/31 10:04:32;;;;;;;7.40;3.90;;;;;;;10.59;39.43;100259.31;105934;1254;72370;-87
2023/03/31 10:07:02;;;;;;;6.50;3.50;;;;;;;10.62;39.26;100262.06;107891;1254;61350;-84
2023/03/31 10:09:33;;;;;;;7.50;2.90;;;;;;;10.59;39.06;100257.89;107255;1254;60420;-86
2023/03/31 10:12:04;;;;;;;3.70;3.20;;;;;;;10.54;39.11;100256.61;105828;1260;75226;-85
2023/03/31 10:14:39;;;;;;;5.80;3.20;;;;;;;10.50;39.21;100257.06;105749;1254;64971;-87
2023/03/31 10:17:16;;;;;;;5.70;3.60;;;;;;;10.49;39.47;100256.25;105784;1257;73864;-87
2023/03/31 10:19:58;;;;;;;5.30;3.20;;;;;;;10.46;39.51;100252.29;105762;1254;60945;-86
2023/03/31 10:22:29;;;;;;;5.30;3.40;;;;;;;10.41;39.42;100249.84;105572;1260;60466;-87
2023/03/31 10:25:21;;;;;;;5.30;3.40;;;;;;;10.42;39.23;100244.86;105860;1257;74850;-85
2023/03/31 10:27:53;;;;;;;6.00;4.10;;;;;;;10.42;39.45;100241.36;105848;1253;64992;-85
2023/03/31 10:30:23;;;;;;;10.30;3.60;;;;;;;10.45;39.52;100236.48;105905;1258;71643;-83
2023/03/31 10:32:52;;;;;;;5.40;3.60;;;;;;;10.50;39.50;100239.64;105822;1259;61611;-87
2023/03/31 10:35:22;;;;;;;7.20;4.40;;;;;;;10.53;39.25;100238.55;105850;1257;60358;-86
2023/03/31 10:37:53;;;;;;;10.00;4.40;;;;;;;10.57;39.49;100237.58;106095;1254;75862;-84
2023/03/31 10:40:24;;;;;;;4.00;3.40;;;;;;;10.63;39.34;100234.02;106831;1257;65129;-85
2023/03/31 10:43:15;;;;;;;5.40;4.60;;;;;;;10.70;39.57;100231.48;105941;1254;72727;-87
2023/03/31 10:45:55;;;;;;;5.60;4.40;;;;;;;10.83;39.25;100231.85;105793;1258;61705;-85
2023/03/31 10:48:31;;;;;;;5.90;4.60;;;;;;;10.90;39.14;100222.98;105795;1254;60350;-84
2023/03/31 10:51:17;;;;;;;6.10;3.50;;;;;;;10.85;38.83;100219.11;106010;1257;74152;-87
2023/03/31 10:53:50;;;;;;;8.50;3.90;;;;;;;10.81;39.24;100220.41;105779;1254;64153;-87
2023/03/31 10:56:30;;;;;;;5.60;4.30;;;;;;;10.83;39.50;100221.88;105855;1254;72499;-85
2023/03/31 10:59:26;;;;;;;11.20;4.10;;;;;;;10.81;38.99;100218.14;105804;1253;60448;-86
2023/03/31 11:02:15;;;;;;;7.40;4.70;;;;;;;10.76;39.39;100217.27;106058;1254;60907;-87
2023/03/31 11:05:16;;;;;;;5.50;4.70;;;;;;;10.74;39.21;100215.98;105729;1254;73844;-84
2023/03/31 11:08:12;;;;;;;10.60;4.70;;;;;;;10.72;39.60;100216.66;105764;1257;64561;-84
2023/03/31 11:10:58;;;;;;;6.20;4.60;;;;;;;10.78;39.67;100214.83;105689;1257;73814;-85
2023/03/31 11:13:44;;;;;;;7.30;4.90;;;;;;;10.87;39.63;100211.84;106704;1253;61104;-85
2023/03/31 11:16:51;;;;;;;5.60;4.40;;;;;;;10.92;38.75;100209.23;106679;1253;60657;-84
2023/03/31 11:19:22;;;;;;;4.80;3.70;;;;;;;10.91;38.30;100209.27;105896;1254;73548;-86
2023/03/31 11:22:25;;;;;;;6.60;3.90;;;;;;;10.91;38.39;100208.02;105804;1254;63736;-86
2023/03/31 11:25:06;;;;;;;6.70;4.50;;;;;;;10.95;38.90;100205.84;105854;1257;73553;-83
2023/03/31 11:27:56;;;;;;;6.40;4.80;;;;;;;10.98;39.05;100194.93;106137;1254;60537;-87
2023/03/31 11:30:37;;;;;;;7.40;5.00;;;;;;;11.03;38.94;100194.61;105873;1257;60434;-85
2023/03/31 11:33:18;;;;;;;6.10;3.80;;;;;;;11.07;38.87;100188.23;105865;1253;73746;-86
2023/03/31 11:36:05;;;;;;;5.30;4.60;;;;;;;11.09;37.57;100184.25;105788;1257;63873;-88
2023/03/31 11:38:52;;;;;;;7.70;4.50;;;;;;;11.06;36.99;100184.23;105802;1257;72986;-84
2023/03/31 11:41:36;;;;;;;4.00;3.60;;;;;;;11.04;36.87;100179.48;105859;1254;60476;-86
2023/03/31 11:44:10;;;;;;;7.00;4.10;;;;;;;11.03;36.91;100178.02;105776;1257;60451;-86
2023/03/31 11:46:58;;;;;;;5.10;4.00;;;;;;;11.06;37.25;100178.85;105899;1254;74685;-88
2023/03/31 11:49:37;;;;;;;7.50;4.40;;;;;;;11.09;36.95;100179.52;105998;1254;64843;-84